sensor_id;sensor_type;location;lat;lon;timestamp;P1;durP1;ratioP1;P2;durP2;ratioP2
79438;SDS011;68889;48.232;10.110;2023-04-03T00:00:28;10.65;;;5.90;;
79438;SDS011;68889;48.232;10.110;2023-04-03T00:02:53;10.73;;;5.88;;
79438;SDS011;68889;48.232;10.110;2023-04-03T00:05:19;11.90;;;6.97;;
79438;SDS011;68889;48.232;10.110;2023-04-03T00:07:45;12.18;;;7.05;;
79438;SDS011;68889;48.232;10.110;2023-04-03T00:10:10;13.32;;;7.22;;
79438;SDS011;68889;48.232;10.110;2023-04-03T00:12:37;10.88;;;6.47;;
79438;SDS011;68889;48.232;10.110;2023-04-03T00:15:02;11.38;;;6.50;;
79438;SDS011;68889;48.232;10.110;2023-04-03T00:17:28;10.45;;;6.28;;
79438;SDS011;68889;48.232;10.110;2023-04-03T00:19:54;8.48;;;4.95;;
79438;SDS011;68889;48.232;10.110;2023-04-03T00:22:20;9.57;;;6.25;;
79438;SDS011;68889;48.232;10.110;2023-04-03T00:24:45;10.00;;;6.40;;
79438;SDS011;68889;48.232;10.110;2023-04-03T00:27:11;8.77;;;5.20;;
79438;SDS011;68889;48.232;10.110;2023-04-03T00:29:36;9.05;;;5.18;;
79438;SDS011;68889;48.232;10.110;2023-04-03T00:32:02;8.63;;;5.65;;
79438;SDS011;68889;48.232;10.110;2023-04-03T00:34:27;10.57;;;5.72;;
79438;SDS011;68889;48.232;10.110;2023-04-03T00:36:53;8.30;;;5.18;;
79438;SDS011;68889;48.232;10.110;2023-04-03T00:39:19;8.70;;;5.15;;
79438;SDS011;68889;48.232;10.110;2023-04-03T00:41:45;11.35;;;5.95;;
79438;SDS011;68889;48.232;10.110;2023-04-03T00:44:20;10.93;;;5.57;;
79438;SDS011;68889;48.232;10.110;2023-04-03T00:46:58;8.57;;;5.07;;
79438;SDS011;68889;48.232;10.110;2023-04-03T00:49:25;8.30;;;5.60;;
79438;SDS011;68889;48.232;10.110;2023-04-03T00:51:51;7.85;;;4.80;;
79438;SDS011;68889;48.232;10.110;2023-04-03T00:54:17;9.25;;;5.20;;
79438;SDS011;68889;48.232;10.110;2023-04-03T00:56:43;8.20;;;4.72;;
79438;SDS011;68889;48.232;10.110;2023-04-03T00:59:10;8.10;;;4.93;;
79438;SDS011;68889;48.232;10.110;2023-04-03T01:01:39;7.50;;;4.95;;
79438;SDS011;68889;48.232;10.110;2023-04-03T01:04:24;7.00;;;4.47;;
79438;SDS011;68889;48.232;10.110;2023-04-03T01:06:54;8.38;;;4.80;;
79438;SDS011;68889;48.232;10.110;2023-04-03T01:09:22;6.95;;;4.63;;
79438;SDS011;68889;48.232;10.110;2023-04-03T01:11:48;7.32;;;4.43;;
79438;SDS011;68889;48.232;10.110;2023-04-03T01:14:14;8.23;;;4.97;;
79438;SDS011;68889;48.232;10.110;2023-04-03T01:16:39;6.75;;;4.28;;
79438;SDS011;68889;48.232;10.110;2023-04-03T01:19:09;9.88;;;5.38;;
79438;SDS011;68889;48.232;10.110;2023-04-03T01:21:53;7.35;;;4.57;;
79438;SDS011;68889;48.232;10.110;2023-04-03T01:24:38;7.40;;;4.75;;
79438;SDS011;68889;48.232;10.110;2023-04-03T01:27:05;9.18;;;5.38;;
79438;SDS011;68889;48.232;10.110;2023-04-03T01:29:32;8.73;;;5.20;;
79438;SDS011;68889;48.232;10.110;2023-04-03T01:31:59;7.55;;;5.20;;
79438;SDS011;68889;48.232;10.110;2023-04-03T01:34:26;7.13;;;4.43;;
79438;SDS011;68889;48.232;10.110;2023-04-03T01:36:52;9.25;;;5.22;;
79438;SDS011;68889;48.232;10.110;2023-04-03T01:39:19;7.00;;;4.68;;
79438;SDS011;68889;48.232;10.110;2023-04-03T01:41:45;8.70;;;4.72;;
79438;SDS011;68889;48.232;10.110;2023-04-03T01:44:10;6.93;;;4.57;;
79438;SDS011;68889;48.232;10.110;2023-04-03T01:46:36;7.43;;;4.65;;
79438;SDS011;68889;48.232;10.110;2023-04-03T01:49:02;7.65;;;4.55;;
79438;SDS011;68889;48.232;10.110;2023-04-03T01:51:28;8.88;;;5.18;;
79438;SDS011;68889;48.232;10.110;2023-04-03T01:53:54;7.78;;;4.68;;
79438;SDS011;68889;48.232;10.110;2023-04-03T01:56:20;7.80;;;4.90;;
79438;SDS011;68889;48.232;10.110;2023-04-03T01:58:46;7.38;;;4.45;;
79438;SDS011;68889;48.232;10.110;2023-04-03T02:01:11;7.43;;;4.57;;
79438;SDS011;68889;48.232;10.110;2023-04-03T02:03:37;8.68;;;4.85;;
79438;SDS011;68889;48.232;10.110;2023-04-03T02:06:02;6.82;;;4.68;;
79438;SDS011;68889;48.232;10.110;2023-04-03T02:08:28;7.15;;;4.57;;
79438;SDS011;68889;48.232;10.110;2023-04-03T02:10:53;5.78;;;3.95;;
79438;SDS011;68889;48.232;10.110;2023-04-03T02:13:19;6.85;;;5.00;;
79438;SDS011;68889;48.232;10.110;2023-04-03T02:15:45;5.85;;;4.32;;
79438;SDS011;68889;48.232;10.110;2023-04-03T02:18:11;8.68;;;4.88;;
79438;SDS011;68889;48.232;10.110;2023-04-03T02:20:37;8.35;;;4.50;;
79438;SDS011;68889;48.232;10.110;2023-04-03T02:23:02;6.20;;;4.10;;
79438;SDS011;68889;48.232;10.110;2023-04-03T02:25:29;7.63;;;4.20;;
79438;SDS011;68889;48.232;10.110;2023-04-03T02:27:55;6.90;;;4.00;;
79438;SDS011;68889;48.232;10.110;2023-04-03T02:30:21;7.32;;;4.65;;
79438;SDS011;68889;48.232;10.110;2023-04-03T02:32:46;8.95;;;4.90;;
79438;SDS011;68889;48.232;10.110;2023-04-03T02:35:12;7.55;;;4.47;;
79438;SDS011;68889;48.232;10.110;2023-04-03T02:37:37;6.22;;;3.75;;
79438;SDS011;68889;48.232;10.110;2023-04-03T02:40:03;5.57;;;3.70;;
79438;SDS011;68889;48.232;10.110;2023-04-03T02:42:31;6.80;;;3.90;;
79438;SDS011;68889;48.232;10.110;2023-04-03T02:44:57;5.55;;;3.83;;
79438;SDS011;68889;48.232;10.110;2023-04-03T02:47:25;6.72;;;3.95;;
79438;SDS011;68889;48.232;10.110;2023-04-03T02:49:51;6.28;;;4.10;;
79438;SDS011;68889;48.232;10.110;2023-04-03T02:52:17;6.85;;;4.05;;
79438;SDS011;68889;48.232;10.110;2023-04-03T02:54:43;6.15;;;3.80;;
79438;SDS011;68889;48.232;10.110;2023-04-03T02:57:09;5.50;;;3.85;;
79438;SDS011;68889;48.232;10.110;2023-04-03T02:59:35;5.50;;;3.70;;
79438;SDS011;68889;48.232;10.110;2023-04-03T03:02:01;6.13;;;3.47;;
79438;SDS011;68889;48.232;10.110;2023-04-03T03:04:27;7.38;;;3.78;;
79438;SDS011;68889;48.232;10.110;2023-04-03T03:06:52;7.55;;;4.25;;
79438;SDS011;68889;48.232;10.110;2023-04-03T03:09:18;6.03;;;3.72;;
79438;SDS011;68889;48.232;10.110;2023-04-03T03:11:43;5.05;;;3.67;;
79438;SDS011;68889;48.232;10.110;2023-04-03T03:14:09;7.70;;;4.10;;
79438;SDS011;68889;48.232;10.110;2023-04-03T03:16:35;7.40;;;4.35;;
79438;SDS011;68889;48.232;10.110;2023-04-03T03:19:01;7.68;;;3.75;;
79438;SDS011;68889;48.232;10.110;2023-04-03T03:21:26;7.90;;;4.20;;
79438;SDS011;68889;48.232;10.110;2023-04-03T03:23:52;6.45;;;4.30;;
79438;SDS011;68889;48.232;10.110;2023-04-03T03:26:17;6.90;;;4.60;;
79438;SDS011;68889;48.232;10.110;2023-04-03T03:28:43;7.15;;;4.30;;
79438;SDS011;68889;48.232;10.110;2023-04-03T03:31:09;6.85;;;4.30;;
79438;SDS011;68889;48.232;10.110;2023-04-03T03:33:35;5.60;;;4.00;;
79438;SDS011;68889;48.232;10.110;2023-04-03T03:36:01;5.70;;;3.78;;
79438;SDS011;68889;48.232;10.110;2023-04-03T03:38:26;5.10;;;3.42;;
79438;SDS011;68889;48.232;10.110;2023-04-03T03:40:52;6.18;;;3.45;;
79438;SDS011;68889;48.232;10.110;2023-04-03T03:43:18;4.70;;;3.58;;
79438;SDS011;68889;48.232;10.110;2023-04-03T03:45:44;5.70;;;3.75;;
79438;SDS011;68889;48.232;10.110;2023-04-03T03:48:10;5.90;;;3.70;;
79438;SDS011;68889;48.232;10.110;2023-04-03T03:50:36;6.60;;;3.97;;
79438;SDS011;68889;48.232;10.110;2023-04-03T03:53:02;6.43;;;3.97;;
79438;SDS011;68889;48.232;10.110;2023-04-03T03:55:27;6.80;;;3.75;;
79438;SDS011;68889;48.232;10.110;2023-04-03T03:57:53;7.57;;;4.13;;
79438;SDS011;68889;48.232;10.110;2023-04-03T04:00:19;4.60;;;3.33;;
79438;SDS011;68889;48.232;10.110;2023-04-03T04:02:45;5.15;;;3.40;;
79438;SDS011;68889;48.232;10.110;2023-04-03T04:05:10;4.32;;;3.10;;
79438;SDS011;68889;48.232;10.110;2023-04-03T04:07:36;5.75;;;3.60;;
79438;SDS011;68889;48.232;10.110;2023-04-03T04:10:02;5.40;;;3.25;;
79438;SDS011;68889;48.232;10.110;2023-04-03T04:12:29;6.75;;;3.53;;
79438;SDS011;68889;48.232;10.110;2023-04-03T04:14:54;5.43;;;3.58;;
79438;SDS011;68889;48.232;10.110;2023-04-03T04:17:20;5.15;;;3.40;;
79438;SDS011;68889;48.232;10.110;2023-04-03T04:19:46;6.18;;;3.45;;
79438;SDS011;68889;48.232;10.110;2023-04-03T04:22:12;5.68;;;3.00;;
79438;SDS011;68889;48.232;10.110;2023-04-03T04:24:37;4.93;;;3.08;;
79438;SDS011;68889;48.232;10.110;2023-04-03T04:27:03;6.72;;;3.40;;
79438;SDS011;68889;48.232;10.110;2023-04-03T04:29:28;4.10;;;2.97;;
79438;SDS011;68889;48.232;10.110;2023-04-03T04:31:54;5.60;;;3.03;;
79438;SDS011;68889;48.232;10.110;2023-04-03T04:34:20;4.45;;;2.70;;
79438;SDS011;68889;48.232;10.110;2023-04-03T04:36:45;4.63;;;2.28;;
79438;SDS011;68889;48.232;10.110;2023-04-03T04:39:11;3.80;;;2.35;;
79438;SDS011;68889;48.232;10.110;2023-04-03T04:41:36;4.32;;;2.78;;
79438;SDS011;68889;48.232;10.110;2023-04-03T04:44:02;4.00;;;2.20;;
79438;SDS011;68889;48.232;10.110;2023-04-03T04:46:27;4.38;;;3.03;;
79438;SDS011;68889;48.232;10.110;2023-04-03T04:48:53;4.45;;;2.33;;
79438;SDS011;68889;48.232;10.110;2023-04-03T04:51:19;4.05;;;2.60;;
79438;SDS011;68889;48.232;10.110;2023-04-03T04:53:45;4.18;;;2.65;;
79438;SDS011;68889;48.232;10.110;2023-04-03T04:56:11;3.88;;;2.55;;
79438;SDS011;68889;48.232;10.110;2023-04-03T04:58:37;4.47;;;2.60;;
79438;SDS011;68889;48.232;10.110;2023-04-03T05:01:04;3.67;;;2.42;;
79438;SDS011;68889;48.232;10.110;2023-04-03T05:03:31;3.95;;;2.20;;
79438;SDS011;68889;48.232;10.110;2023-04-03T05:05:57;4.53;;;2.60;;
79438;SDS011;68889;48.232;10.110;2023-04-03T05:08:23;4.20;;;2.55;;
79438;SDS011;68889;48.232;10.110;2023-04-03T05:10:49;5.95;;;3.17;;
79438;SDS011;68889;48.232;10.110;2023-04-03T05:13:15;4.60;;;2.45;;
79438;SDS011;68889;48.232;10.110;2023-04-03T05:15:40;5.05;;;2.60;;
79438;SDS011;68889;48.232;10.110;2023-04-03T05:18:06;4.47;;;2.72;;
79438;SDS011;68889;48.232;10.110;2023-04-03T05:20:32;4.03;;;2.47;;
79438;SDS011;68889;48.232;10.110;2023-04-03T05:22:58;3.88;;;2.58;;
79438;SDS011;68889;48.232;10.110;2023-04-03T05:25:24;4.30;;;2.67;;
79438;SDS011;68889;48.232;10.110;2023-04-03T05:27:50;4.50;;;2.58;;
79438;SDS011;68889;48.232;10.110;2023-04-03T05:30:15;3.92;;;2.80;;
79438;SDS011;68889;48.232;10.110;2023-04-03T05:32:41;4.70;;;2.70;;
79438;SDS011;68889;48.232;10.110;2023-04-03T05:35:07;4.45;;;2.67;;
79438;SDS011;68889;48.232;10.110;2023-04-03T05:37:33;4.65;;;2.60;;
79438;SDS011;68889;48.232;10.110;2023-04-03T05:39:59;4.05;;;2.67;;
79438;SDS011;68889;48.232;10.110;2023-04-03T05:42:25;3.80;;;2.47;;
79438;SDS011;68889;48.232;10.110;2023-04-03T05:44:50;4.43;;;2.90;;
79438;SDS011;68889;48.232;10.110;2023-04-03T05:47:17;4.95;;;2.58;;
79438;SDS011;68889;48.232;10.110;2023-04-03T05:49:43;4.97;;;2.63;;
79438;SDS011;68889;48.232;10.110;2023-04-03T05:54:52;4.25;;;2.40;;
79438;SDS011;68889;48.232;10.110;2023-04-03T05:57:18;3.70;;;2.47;;
79438;SDS011;68889;48.232;10.110;2023-04-03T05:59:44;4.25;;;3.00;;
79438;SDS011;68889;48.232;10.110;2023-04-03T06:02:14;3.80;;;2.85;;
79438;SDS011;68889;48.232;10.110;2023-04-03T06:04:41;4.55;;;3.17;;
79438;SDS011;68889;48.232;10.110;2023-04-03T06:07:09;4.57;;;2.63;;
79438;SDS011;68889;48.232;10.110;2023-04-03T06:09:45;4.18;;;2.75;;
79438;SDS011;68889;48.232;10.110;2023-04-03T06:12:12;5.75;;;2.83;;
79438;SDS011;68889;48.232;10.110;2023-04-03T06:14:37;4.28;;;2.65;;
79438;SDS011;68889;48.232;10.110;2023-04-03T06:17:03;6.13;;;2.53;;
79438;SDS011;68889;48.232;10.110;2023-04-03T06:19:29;4.38;;;2.63;;
79438;SDS011;68889;48.232;10.110;2023-04-03T06:21:55;4.72;;;2.70;;
79438;SDS011;68889;48.232;10.110;2023-04-03T06:24:21;3.75;;;2.78;;
79438;SDS011;68889;48.232;10.110;2023-04-03T06:26:48;3.83;;;2.67;;
79438;SDS011;68889;48.232;10.110;2023-04-03T06:29:16;5.88;;;3.00;;
79438;SDS011;68889;48.232;10.110;2023-04-03T06:31:41;4.38;;;2.63;;
79438;SDS011;68889;48.232;10.110;2023-04-03T06:34:07;4.35;;;2.63;;
79438;SDS011;68889;48.232;10.110;2023-04-03T06:36:33;4.40;;;2.38;;
79438;SDS011;68889;48.232;10.110;2023-04-03T06:38:59;4.28;;;2.72;;
79438;SDS011;68889;48.232;10.110;2023-04-03T06:41:25;4.93;;;2.90;;
79438;SDS011;68889;48.232;10.110;2023-04-03T06:43:51;4.15;;;2.85;;
79438;SDS011;68889;48.232;10.110;2023-04-03T06:46:19;5.13;;;2.88;;
79438;SDS011;68889;48.232;10.110;2023-04-03T06:48:46;5.22;;;2.80;;
79438;SDS011;68889;48.232;10.110;2023-04-03T06:51:17;4.90;;;3.33;;
79438;SDS011;68889;48.232;10.110;2023-04-03T06:53:44;5.38;;;2.80;;
79438;SDS011;68889;48.232;10.110;2023-04-03T06:56:10;4.93;;;2.85;;
79438;SDS011;68889;48.232;10.110;2023-04-03T06:58:36;4.53;;;2.60;;
79438;SDS011;68889;48.232;10.110;2023-04-03T07:01:02;4.43;;;2.55;;
79438;SDS011;68889;48.232;10.110;2023-04-03T07:03:27;3.92;;;2.30;;
79438;SDS011;68889;48.232;10.110;2023-04-03T07:05:53;4.15;;;2.65;;
79438;SDS011;68889;48.232;10.110;2023-04-03T07:08:19;6.97;;;2.97;;
79438;SDS011;68889;48.232;10.110;2023-04-03T07:10:44;5.03;;;2.63;;
79438;SDS011;68889;48.232;10.110;2023-04-03T07:13:10;4.32;;;3.00;;
79438;SDS011;68889;48.232;10.110;2023-04-03T07:15:36;3.60;;;2.45;;
79438;SDS011;68889;48.232;10.110;2023-04-03T07:18:01;4.05;;;2.50;;
79438;SDS011;68889;48.232;10.110;2023-04-03T07:20:27;4.35;;;3.20;;
79438;SDS011;68889;48.232;10.110;2023-04-03T07:22:53;4.75;;;3.30;;
79438;SDS011;68889;48.232;10.110;2023-04-03T07:25:18;4.57;;;2.70;;
79438;SDS011;68889;48.232;10.110;2023-04-03T07:27:44;4.88;;;3.30;;
79438;SDS011;68889;48.232;10.110;2023-04-03T07:30:10;4.22;;;2.72;;
79438;SDS011;68889;48.232;10.110;2023-04-03T07:32:36;5.38;;;3.35;;
79438;SDS011;68889;48.232;10.110;2023-04-03T07:35:02;5.80;;;3.20;;
79438;SDS011;68889;48.232;10.110;2023-04-03T07:37:28;5.00;;;3.35;;
79438;SDS011;68889;48.232;10.110;2023-04-03T07:39:54;5.25;;;3.10;;
79438;SDS011;68889;48.232;10.110;2023-04-03T07:42:20;5.75;;;3.63;;
79438;SDS011;68889;48.232;10.110;2023-04-03T07:44:46;6.57;;;3.15;;
79438;SDS011;68889;48.232;10.110;2023-04-03T07:47:12;7.10;;;3.70;;
79438;SDS011;68889;48.232;10.110;2023-04-03T07:49:39;4.93;;;3.15;;
79438;SDS011;68889;48.232;10.110;2023-04-03T07:52:05;5.82;;;3.50;;
79438;SDS011;68889;48.232;10.110;2023-04-03T07:54:33;6.60;;;3.47;;
79438;SDS011;68889;48.232;10.110;2023-04-03T07:57:00;4.60;;;3.17;;
79438;SDS011;68889;48.232;10.110;2023-04-03T07:59:26;5.30;;;3.42;;
79438;SDS011;68889;48.232;10.110;2023-04-03T08:01:52;6.22;;;3.33;;
79438;SDS011;68889;48.232;10.110;2023-04-03T08:04:17;5.80;;;3.60;;
79438;SDS011;68889;48.232;10.110;2023-04-03T08:06:43;5.07;;;3.40;;
79438;SDS011;68889;48.232;10.110;2023-04-03T08:09:08;5.95;;;3.15;;
79438;SDS011;68889;48.232;10.110;2023-04-03T08:11:34;5.65;;;3.22;;
79438;SDS011;68889;48.232;10.110;2023-04-03T08:16:27;4.13;;;2.88;;
79438;SDS011;68889;48.232;10.110;2023-04-03T08:18:53;5.18;;;3.17;;
79438;SDS011;68889;48.232;10.110;2023-04-03T08:21:19;5.82;;;3.83;;
79438;SDS011;68889;48.232;10.110;2023-04-03T08:23:47;6.55;;;3.60;;
79438;SDS011;68889;48.232;10.110;2023-04-03T08:26:15;5.22;;;3.53;;
79438;SDS011;68889;48.232;10.110;2023-04-03T08:28:42;5.70;;;3.05;;
79438;SDS011;68889;48.232;10.110;2023-04-03T08:31:09;3.70;;;2.60;;
79438;SDS011;68889;48.232;10.110;2023-04-03T08:33:37;4.60;;;2.85;;
79438;SDS011;68889;48.232;10.110;2023-04-03T08:36:04;6.53;;;3.03;;
79438;SDS011;68889;48.232;10.110;2023-04-03T08:38:31;5.05;;;2.80;;
79438;SDS011;68889;48.232;10.110;2023-04-03T08:41:04;5.47;;;2.95;;
79438;SDS011;68889;48.232;10.110;2023-04-03T08:43:46;3.88;;;3.08;;
79438;SDS011;68889;48.232;10.110;2023-04-03T08:46:20;6.47;;;2.90;;
79438;SDS011;68889;48.232;10.110;2023-04-03T08:48:48;3.75;;;2.65;;
79438;SDS011;68889;48.232;10.110;2023-04-03T08:51:17;4.78;;;2.75;;
79438;SDS011;68889;48.232;10.110;2023-04-03T08:53:48;4.40;;;2.92;;
79438;SDS011;68889;48.232;10.110;2023-04-03T08:56:21;6.70;;;3.00;;
79438;SDS011;68889;48.232;10.110;2023-04-03T08:58:50;4.28;;;2.50;;
79438;SDS011;68889;48.232;10.110;2023-04-03T09:03:58;4.28;;;2.60;;
79438;SDS011;68889;48.232;10.110;2023-04-03T09:06:26;3.92;;;2.72;;
79438;SDS011;68889;48.232;10.110;2023-04-03T09:09:11;4.45;;;2.70;;
79438;SDS011;68889;48.232;10.110;2023-04-03T09:17:12;3.60;;;2.50;;
79438;SDS011;68889;48.232;10.110;2023-04-03T09:20:09;3.50;;;2.50;;
79438;SDS011;68889;48.232;10.110;2023-04-03T09:22:44;3.63;;;2.10;;
79438;SDS011;68889;48.232;10.110;2023-04-03T09:25:15;3.35;;;1.98;;
79438;SDS011;68889;48.232;10.110;2023-04-03T09:27:44;3.83;;;2.40;;
79438;SDS011;68889;48.232;10.110;2023-04-03T09:30:14;4.47;;;2.35;;
79438;SDS011;68889;48.232;10.110;2023-04-03T09:32:41;3.53;;;2.13;;
79438;SDS011;68889;48.232;10.110;2023-04-03T09:35:18;4.47;;;2.03;;
79438;SDS011;68889;48.232;10.110;2023-04-03T09:38:18;4.53;;;2.53;;
79438;SDS011;68889;48.232;10.110;2023-04-03T09:40:45;4.28;;;2.38;;
79438;SDS011;68889;48.232;10.110;2023-04-03T09:45:52;4.43;;;2.75;;
79438;SDS011;68889;48.232;10.110;2023-04-03T09:55:55;4.72;;;2.58;;
79438;SDS011;68889;48.232;10.110;2023-04-03T09:58:26;3.67;;;2.40;;
79438;SDS011;68889;48.232;10.110;2023-04-03T10:00:58;4.70;;;2.55;;
79438;SDS011;68889;48.232;10.110;2023-04-03T10:03:27;4.40;;;2.80;;
79438;SDS011;68889;48.232;10.110;2023-04-03T10:05:55;3.40;;;2.38;;
79438;SDS011;68889;48.232;10.110;2023-04-03T10:08:24;4.43;;;2.30;;
79438;SDS011;68889;48.232;10.110;2023-04-03T10:11:09;4.53;;;2.78;;
79438;SDS011;68889;48.232;10.110;2023-04-03T10:13:36;3.55;;;2.70;;
79438;SDS011;68889;48.232;10.110;2023-04-03T10:16:16;4.25;;;2.38;;
79438;SDS011;68889;48.232;10.110;2023-04-03T10:18:46;5.57;;;2.38;;
79438;SDS011;68889;48.232;10.110;2023-04-03T10:21:35;4.97;;;2.63;;
79438;SDS011;68889;48.232;10.110;2023-04-03T10:29:38;5.38;;;3.08;;
79438;SDS011;68889;48.232;10.110;2023-04-03T10:32:23;4.00;;;2.58;;
79438;SDS011;68889;48.232;10.110;2023-04-03T10:46:30;3.60;;;2.47;;
79438;SDS011;68889;48.232;10.110;2023-04-03T10:49:23;4.15;;;3.22;;
79438;SDS011;68889;48.232;10.110;2023-04-03T10:52:16;4.35;;;2.75;;
79438;SDS011;68889;48.232;10.110;2023-04-03T10:55:07;4.97;;;3.30;;
79438;SDS011;68889;48.232;10.110;2023-04-03T10:57:38;4.93;;;2.78;;
79438;SDS011;68889;48.232;10.110;2023-04-03T11:00:06;4.35;;;2.65;;
79438;SDS011;68889;48.232;10.110;2023-04-03T11:02:45;3.88;;;2.85;;
79438;SDS011;68889;48.232;10.110;2023-04-03T11:05:34;5.40;;;3.10;;
79438;SDS011;68889;48.232;10.110;2023-04-03T11:08:03;4.90;;;3.22;;
79438;SDS011;68889;48.232;10.110;2023-04-03T11:10:41;4.47;;;3.20;;
79438;SDS011;68889;48.232;10.110;2023-04-03T11:16:08;5.13;;;2.63;;
79438;SDS011;68889;48.232;10.110;2023-04-03T11:18:43;5.53;;;2.85;;
79438;SDS011;68889;48.232;10.110;2023-04-03T11:21:16;4.78;;;2.75;;
79438;SDS011;68889;48.232;10.110;2023-04-03T11:23:47;3.53;;;2.55;;
79438;SDS011;68889;48.232;10.110;2023-04-03T11:26:13;5.97;;;2.70;;
79438;SDS011;68889;48.232;10.110;2023-04-03T11:28:45;3.35;;;2.53;;
79438;SDS011;68889;48.232;10.110;2023-04-03T11:31:15;4.53;;;2.63;;
79438;SDS011;68889;48.232;10.110;2023-04-03T11:38:43;3.58;;;3.00;;
79438;SDS011;68889;48.232;10.110;2023-04-03T11:41:25;4.35;;;2.72;;
79438;SDS011;68889;48.232;10.110;2023-04-03T11:46:21;3.95;;;2.72;;
79438;SDS011;68889;48.232;10.110;2023-04-03T11:48:48;3.95;;;2.80;;
79438;SDS011;68889;48.232;10.110;2023-04-03T11:53:45;4.18;;;2.65;;
79438;SDS011;68889;48.232;10.110;2023-04-03T11:56:27;3.20;;;2.30;;
79438;SDS011;68889;48.232;10.110;2023-04-03T12:04:11;3.30;;;2.60;;
79438;SDS011;68889;48.232;10.110;2023-04-03T12:15:16;6.90;;;2.65;;
79438;SDS011;68889;48.232;10.110;2023-04-03T12:17:44;3.38;;;2.67;;
79438;SDS011;68889;48.232;10.110;2023-04-03T12:23:34;5.07;;;3.03;;
79438;SDS011;68889;48.232;10.110;2023-04-03T12:26:04;3.60;;;3.08;;
79438;SDS011;68889;48.232;10.110;2023-04-03T12:28:42;4.40;;;3.05;;
79438;SDS011;68889;48.232;10.110;2023-04-03T12:31:09;4.47;;;2.75;;
79438;SDS011;68889;48.232;10.110;2023-04-03T12:36:33;4.70;;;2.72;;
79438;SDS011;68889;48.232;10.110;2023-04-03T12:39:24;4.40;;;3.05;;
79438;SDS011;68889;48.232;10.110;2023-04-03T12:42:18;5.95;;;2.78;;
79438;SDS011;68889;48.232;10.110;2023-04-03T12:44:59;4.50;;;2.53;;
79438;SDS011;68889;48.232;10.110;2023-04-03T12:47:35;3.80;;;2.53;;
79438;SDS011;68889;48.232;10.110;2023-04-03T12:50:03;4.10;;;2.53;;
79438;SDS011;68889;48.232;10.110;2023-04-03T12:52:41;3.88;;;2.35;;
79438;SDS011;68889;48.232;10.110;2023-04-03T12:55:17;4.05;;;2.63;;
79438;SDS011;68889;48.232;10.110;2023-04-03T12:57:45;3.33;;;2.63;;
79438;SDS011;68889;48.232;10.110;2023-04-03T13:03:00;4.07;;;2.35;;
79438;SDS011;68889;48.232;10.110;2023-04-03T13:05:28;3.83;;;2.40;;
79438;SDS011;68889;48.232;10.110;2023-04-03T13:08:01;3.85;;;2.55;;
79438;SDS011;68889;48.232;10.110;2023-04-03T13:10:42;3.50;;;2.65;;
79438;SDS011;68889;48.232;10.110;2023-04-03T13:13:29;4.47;;;2.70;;
79438;SDS011;68889;48.232;10.110;2023-04-03T13:15:55;4.55;;;2.80;;
79438;SDS011;68889;48.232;10.110;2023-04-03T13:18:34;4.22;;;2.67;;
79438;SDS011;68889;48.232;10.110;2023-04-03T13:21:22;3.30;;;2.50;;
79438;SDS011;68889;48.232;10.110;2023-04-03T13:24:03;4.90;;;2.72;;
79438;SDS011;68889;48.232;10.110;2023-04-03T13:26:30;3.95;;;2.42;;
79438;SDS011;68889;48.232;10.110;2023-04-03T13:29:05;4.47;;;2.60;;
79438;SDS011;68889;48.232;10.110;2023-04-03T13:31:33;3.75;;;2.45;;
79438;SDS011;68889;48.232;10.110;2023-04-03T13:36:36;3.53;;;2.55;;
79438;SDS011;68889;48.232;10.110;2023-04-03T13:41:38;4.40;;;2.53;;
79438;SDS011;68889;48.232;10.110;2023-04-03T13:47:38;3.47;;;2.60;;
79438;SDS011;68889;48.232;10.110;2023-04-03T13:49:34;2.95;;;2.15;;
79438;SDS011;68889;48.232;10.110;2023-04-03T13:52:23;4.18;;;2.20;;
79438;SDS011;68889;48.232;10.110;2023-04-03T13:54:51;3.00;;;2.20;;
79438;SDS011;68889;48.232;10.110;2023-04-03T13:57:20;4.30;;;2.22;;
79438;SDS011;68889;48.232;10.110;2023-04-03T13:59:45;3.47;;;2.28;;
79438;SDS011;68889;48.232;10.110;2023-04-03T14:02:18;4.07;;;2.47;;
79438;SDS011;68889;48.232;10.110;2023-04-03T14:05:04;3.75;;;2.17;;
79438;SDS011;68889;48.232;10.110;2023-04-03T14:07:33;3.80;;;2.38;;
79438;SDS011;68889;48.232;10.110;2023-04-03T14:09:59;3.80;;;2.38;;
79438;SDS011;68889;48.232;10.110;2023-04-03T14:15:03;4.88;;;2.47;;
79438;SDS011;68889;48.232;10.110;2023-04-03T14:17:35;3.33;;;2.38;;
79438;SDS011;68889;48.232;10.110;2023-04-03T14:20:02;4.38;;;2.50;;
79438;SDS011;68889;48.232;10.110;2023-04-03T14:22:30;4.40;;;2.00;;
79438;SDS011;68889;48.232;10.110;2023-04-03T14:24:57;4.78;;;2.15;;
79438;SDS011;68889;48.232;10.110;2023-04-03T14:27:33;3.50;;;2.35;;
79438;SDS011;68889;48.232;10.110;2023-04-03T14:30:05;4.20;;;2.10;;
79438;SDS011;68889;48.232;10.110;2023-04-03T14:37:27;3.15;;;2.17;;
79438;SDS011;68889;48.232;10.110;2023-04-03T14:39:55;4.38;;;2.28;;
79438;SDS011;68889;48.232;10.110;2023-04-03T14:42:26;4.30;;;2.10;;
79438;SDS011;68889;48.232;10.110;2023-04-03T14:44:55;3.25;;;1.98;;
79438;SDS011;68889;48.232;10.110;2023-04-03T14:47:21;4.00;;;2.13;;
79438;SDS011;68889;48.232;10.110;2023-04-03T14:49:51;3.17;;;2.20;;
79438;SDS011;68889;48.232;10.110;2023-04-03T14:54:51;3.95;;;2.35;;
79438;SDS011;68889;48.232;10.110;2023-04-03T14:57:17;2.97;;;2.15;;
79438;SDS011;68889;48.232;10.110;2023-04-03T14:59:44;3.97;;;2.30;;
79438;SDS011;68889;48.232;10.110;2023-04-03T15:02:22;3.30;;;1.98;;
79438;SDS011;68889;48.232;10.110;2023-04-03T15:04:51;3.35;;;2.05;;
79438;SDS011;68889;48.232;10.110;2023-04-03T15:07:16;3.50;;;1.80;;
79438;SDS011;68889;48.232;10.110;2023-04-03T15:09:43;4.85;;;2.05;;
79438;SDS011;68889;48.232;10.110;2023-04-03T15:12:09;3.25;;;2.00;;
79438;SDS011;68889;48.232;10.110;2023-04-03T15:14:35;3.00;;;1.70;;
79438;SDS011;68889;48.232;10.110;2023-04-03T15:17:01;3.78;;;1.88;;
79438;SDS011;68889;48.232;10.110;2023-04-03T15:19:27;2.88;;;1.90;;
79438;SDS011;68889;48.232;10.110;2023-04-03T15:21:52;2.38;;;1.60;;
79438;SDS011;68889;48.232;10.110;2023-04-03T15:24:18;3.38;;;1.67;;
79438;SDS011;68889;48.232;10.110;2023-04-03T15:26:44;3.30;;;2.03;;
79438;SDS011;68889;48.232;10.110;2023-04-03T15:29:11;4.57;;;2.00;;
79438;SDS011;68889;48.232;10.110;2023-04-03T15:31:38;3.13;;;1.60;;
79438;SDS011;68889;48.232;10.110;2023-04-03T15:34:07;2.75;;;1.73;;
79438;SDS011;68889;48.232;10.110;2023-04-03T15:36:33;1.90;;;1.33;;
79438;SDS011;68889;48.232;10.110;2023-04-03T15:38:58;4.38;;;1.70;;
79438;SDS011;68889;48.232;10.110;2023-04-03T15:41:28;2.00;;;1.40;;
79438;SDS011;68889;48.232;10.110;2023-04-03T15:43:53;4.22;;;1.98;;
79438;SDS011;68889;48.232;10.110;2023-04-03T15:46:19;2.55;;;1.52;;
79438;SDS011;68889;48.232;10.110;2023-04-03T15:48:45;3.33;;;1.50;;
79438;SDS011;68889;48.232;10.110;2023-04-03T15:51:11;3.00;;;1.80;;
79438;SDS011;68889;48.232;10.110;2023-04-03T15:53:37;2.97;;;1.58;;
79438;SDS011;68889;48.232;10.110;2023-04-03T15:56:02;2.42;;;1.52;;
79438;SDS011;68889;48.232;10.110;2023-04-03T16:00:56;2.78;;;1.42;;
79438;SDS011;68889;48.232;10.110;2023-04-03T16:03:22;4.53;;;1.63;;
79438;SDS011;68889;48.232;10.110;2023-04-03T16:08:15;1.95;;;1.38;;
79438;SDS011;68889;48.232;10.110;2023-04-03T16:10:42;4.00;;;1.83;;
79438;SDS011;68889;48.232;10.110;2023-04-03T16:13:10;2.30;;;1.40;;
79438;SDS011;68889;48.232;10.110;2023-04-03T16:15:36;3.75;;;1.45;;
79438;SDS011;68889;48.232;10.110;2023-04-03T16:18:02;2.75;;;1.60;;
79438;SDS011;68889;48.232;10.110;2023-04-03T16:20:29;3.47;;;1.30;;